createdAt,value
2019-04-11T00:00:31.384Z,1015.24
2019-04-11T00:01:36.788Z,1015.26
2019-04-11T00:02:33.059Z,1015.32
2019-04-11T00:03:31.355Z,1015.26
2019-04-11T00:04:32.303Z,1015.33
2019-04-11T00:05:31.273Z,1015.36
2019-04-11T00:06:31.806Z,1015.36
2019-04-11T00:07:32.092Z,1015.38
2019-04-11T00:08:32.181Z,1015.28
2019-04-11T00:09:32.494Z,1015.46
2019-04-11T00:10:31.343Z,1015.36
2019-04-11T00:11:31.206Z,1015.37
2019-04-11T00:12:31.188Z,1015.38
2019-04-11T00:13:33.432Z,1015.42
2019-04-11T00:14:31.719Z,1015.38
2019-04-11T00:15:31.155Z,1015.40
2019-04-11T00:16:31.146Z,1015.38
2019-04-11T00:17:32.130Z,1015.40
2019-04-11T00:18:31.148Z,1015.45
2019-04-11T00:19:31.562Z,1015.43
2019-04-11T00:20:31.878Z,1015.44
2019-04-11T00:21:31.100Z,1015.41
2019-04-11T00:22:31.084Z,1015.46
2019-04-11T00:23:32.298Z,1015.49
2019-04-11T00:24:31.383Z,1015.45
2019-04-11T00:25:31.668Z,1015.51
2019-04-11T00:26:31.044Z,1015.49
2019-04-11T00:27:31.028Z,1015.47
2019-04-11T00:28:31.973Z,1015.53
2019-04-11T00:29:31.285Z,1015.55
2019-04-11T00:30:30.992Z,1015.52
2019-04-11T00:31:30.991Z,1015.43
2019-04-11T00:32:31.646Z,1015.57
2019-04-11T00:33:31.953Z,1015.51
2019-04-11T00:34:31.110Z,1015.53
2019-04-11T00:35:31.447Z,1015.55
2019-04-11T00:36:30.928Z,1015.45
2019-04-11T00:37:30.930Z,1015.54
2019-04-11T00:38:32.008Z,1015.58
2019-04-11T00:39:31.869Z,1015.60
2019-04-11T00:40:30.891Z,1015.56
2019-04-11T00:41:31.326Z,1015.58
2019-04-11T00:42:30.866Z,1015.61
2019-04-11T00:43:36.944Z,1015.60
2019-04-11T00:44:32.758Z,1015.51
2019-04-11T00:45:31.795Z,1015.51
2019-04-11T00:46:32.001Z,1015.58
2019-04-11T00:47:31.178Z,1015.59
2019-04-11T00:48:30.803Z,1015.52
2019-04-11T00:49:30.808Z,1015.57
2019-04-11T00:50:31.603Z,1015.56
2019-04-11T00:51:31.695Z,1015.63
2019-04-11T00:52:31.476Z,1015.65
2019-04-11T00:53:30.968Z,1015.59
2019-04-11T00:54:31.067Z,1015.60
2019-04-11T00:55:31.482Z,1015.62
2019-04-11T00:56:30.708Z,1015.60
2019-04-11T00:57:30.767Z,1015.60
2019-04-11T00:58:31.800Z,1015.63
2019-04-11T00:59:30.671Z,1015.62
2019-04-11T01:00:31.283Z,1015.56
2019-04-11T01:01:31.619Z,1015.58
2019-04-11T01:02:31.548Z,1015.64
2019-04-11T01:03:30.660Z,1015.55
2019-04-11T01:04:30.676Z,1015.56
2019-04-11T01:05:31.723Z,1015.60
2019-04-11T01:06:30.598Z,1015.66
2019-04-11T01:07:31.134Z,1015.58
2019-04-11T01:08:31.477Z,1015.60
2019-04-11T01:09:30.668Z,1015.69
2019-04-11T01:10:30.562Z,1015.64
2019-04-11T01:11:30.550Z,1015.63
2019-04-11T01:12:30.556Z,1015.63
2019-04-11T01:13:41.468Z,1015.66
2019-04-11T01:14:32.058Z,1015.63
2019-04-11T01:15:31.379Z,1015.66
2019-04-11T01:16:30.521Z,1015.65
2019-04-11T01:17:31.519Z,1015.65
2019-04-11T01:18:30.469Z,1015.62
2019-04-11T01:19:30.962Z,1015.65
2019-04-11T01:20:31.414Z,1015.69
2019-04-11T01:21:30.654Z,1015.67
2019-04-11T01:22:30.422Z,1015.65
2019-04-11T01:23:31.105Z,1015.67
2019-04-11T01:24:31.438Z,1015.69
2019-04-11T01:25:30.679Z,1015.71
2019-04-11T01:26:30.383Z,1015.68
2019-04-11T01:27:30.373Z,1015.77
2019-04-11T01:28:31.015Z,1015.67
2019-04-11T01:29:31.333Z,1015.74
2019-04-11T01:30:31.708Z,1015.73
2019-04-11T01:31:30.496Z,1015.69
2019-04-11T01:32:30.587Z,1015.72
2019-04-11T01:33:30.307Z,1015.70
2019-04-11T01:34:30.778Z,1015.71
2019-04-11T01:35:31.087Z,1015.71
2019-04-11T01:36:31.131Z,1015.73
2019-04-11T01:37:31.394Z,1015.76
2019-04-11T01:38:30.505Z,1015.74
2019-04-11T01:39:30.282Z,1015.71
2019-04-11T01:40:30.236Z,1015.75
2019-04-11T01:41:30.905Z,1015.74
2019-04-11T01:42:31.209Z,1015.75
2019-04-11T01:43:30.728Z,1015.73
2019-04-11T01:44:30.433Z,1015.78
2019-04-11T01:45:30.179Z,1015.75
2019-04-11T01:46:30.158Z,1015.71
2019-04-11T01:47:30.915Z,1015.76
2019-04-11T01:48:31.168Z,1015.75
2019-04-11T01:49:30.370Z,1015.74
2019-04-11T01:50:30.128Z,1015.75
2019-04-11T01:51:30.103Z,1015.79
2019-04-11T01:52:30.646Z,1015.78
2019-04-11T01:53:31.038Z,1015.72
2019-04-11T01:54:30.104Z,1015.81
2019-04-11T01:55:30.064Z,1015.79
2019-04-11T01:56:30.067Z,1015.79
2019-04-11T01:57:30.038Z,1015.82
2019-04-11T01:58:30.932Z,1015.82
2019-04-11T01:59:31.178Z,1015.80
2019-04-11T02:00:30.200Z,1015.79
2019-04-11T02:01:30.605Z,1015.81
2019-04-11T02:02:30.637Z,1015.86
2019-04-11T02:03:30.852Z,1015.87
2019-04-11T02:04:30.108Z,1015.83
2019-04-11T02:05:29.950Z,1015.81
2019-04-11T02:06:29.950Z,1015.84
2019-04-11T02:07:30.949Z,1015.82
2019-04-11T02:08:29.915Z,1015.84
2019-04-11T02:09:30.406Z,1015.81
2019-04-11T02:10:29.896Z,1015.88
2019-04-11T02:11:29.909Z,1015.90
2019-04-11T02:12:30.983Z,1015.90
2019-04-11T02:13:30.069Z,1015.93
2019-04-11T02:14:29.859Z,1015.91
2019-04-11T02:15:30.426Z,1015.91
2019-04-11T02:16:29.827Z,1015.90
2019-04-11T02:17:30.719Z,1015.90
2019-04-11T02:18:29.814Z,1015.91
2019-04-11T02:19:29.801Z,1015.89
2019-04-11T02:20:29.788Z,1015.96
2019-04-11T02:21:29.782Z,1015.91
2019-04-11T02:22:30.545Z,1016.00
2019-04-11T02:23:30.855Z,1015.96
2019-04-11T02:24:30.032Z,1016.02
2019-04-11T02:25:30.383Z,1016.01
2019-04-11T02:26:29.719Z,1015.99
2019-04-11T02:27:30.765Z,1015.98
2019-04-11T02:28:30.828Z,1015.97
2019-04-11T02:29:29.857Z,1015.93
2019-04-11T02:30:30.535Z,1015.95
2019-04-11T02:31:30.571Z,1015.99
2019-04-11T02:32:29.706Z,1016.01
2019-04-11T02:33:30.636Z,1015.96
2019-04-11T02:34:29.828Z,1016.01
2019-04-11T02:35:31.104Z,1016.02
2019-04-11T02:36:31.392Z,1015.99
2019-04-11T02:37:31.526Z,1016.02
2019-04-11T02:38:30.507Z,1016.00
2019-04-11T02:39:32.908Z,1016.08
2019-04-11T02:40:30.554Z,1016.03
2019-04-11T02:41:30.295Z,1016.06
2019-04-11T02:42:30.686Z,1016.07
2019-04-11T02:43:29.680Z,1016.09
2019-04-11T02:44:45.763Z,1016.08
2019-04-11T02:45:42.664Z,1016.05
2019-04-11T02:46:40.875Z,1016.10
2019-04-11T02:47:32.869Z,1016.11
2019-04-11T02:48:31.069Z,1016.10
2019-04-11T02:49:31.127Z,1016.11
2019-04-11T02:50:29.961Z,1016.13
2019-04-11T02:51:31.032Z,1016.11
2019-04-11T02:52:29.436Z,1016.13
2019-04-11T02:53:30.701Z,1016.12
2019-04-11T02:54:30.651Z,1016.14
2019-04-11T02:55:29.574Z,1016.15
2019-04-11T02:56:31.088Z,1016.03
2019-04-11T02:57:30.058Z,1016.17
2019-04-11T02:58:30.037Z,1016.17
2019-04-11T02:59:30.309Z,1016.16
2019-04-11T03:00:30.999Z,1016.17
2019-04-11T03:01:29.337Z,1016.21
2019-04-11T03:02:30.806Z,1016.21
2019-04-11T03:03:29.861Z,1016.23
2019-04-11T03:04:30.841Z,1016.20
2019-04-11T03:05:30.917Z,1016.23
2019-04-11T03:06:30.846Z,1016.17
2019-04-11T03:07:30.014Z,1016.23
2019-04-11T03:08:31.749Z,1016.25
2019-04-11T03:09:29.681Z,1016.20
2019-04-11T03:10:31.283Z,1016.23
2019-04-11T03:11:30.329Z,1016.25
2019-04-11T03:12:29.793Z,1016.23
2019-04-11T03:13:29.556Z,1016.22
2019-04-11T03:14:44.724Z,1016.25
2019-04-11T03:15:44.641Z,1016.24
2019-04-11T03:16:42.857Z,1016.32
2019-04-11T03:17:35.851Z,1016.27
2019-04-11T03:18:46.152Z,1016.24
2019-04-11T03:19:43.965Z,1016.21
2019-04-11T03:20:37.117Z,1016.26
2019-04-11T03:21:33.185Z,1016.28
2019-04-11T03:22:30.122Z,1016.30
2019-04-11T03:23:29.109Z,1016.32
2019-04-11T03:24:31.055Z,1016.29
2019-04-11T03:25:30.666Z,1016.29
2019-04-11T03:26:29.277Z,1016.31
2019-04-11T03:27:30.480Z,1016.32
2019-04-11T03:28:31.334Z,1016.28
2019-04-11T03:29:30.894Z,1016.33
2019-04-11T03:30:48.916Z,1016.37
2019-04-11T03:32:13.320Z,1016.31
2019-04-11T03:33:28.972Z,1016.36
2019-04-11T03:37:13.879Z,1016.42
2019-04-11T03:37:53.669Z,1016.41
2019-04-11T03:38:55.241Z,1016.44
2019-04-11T03:39:50.687Z,1016.46
2019-04-11T03:40:46.647Z,1016.40
2019-04-11T03:41:50.387Z,1016.46
2019-04-11T03:42:42.972Z,1016.40
2019-04-11T03:43:39.552Z,1016.41
2019-04-11T03:44:37.185Z,1016.42
2019-04-11T03:45:47.958Z,1016.42
2019-04-11T03:46:48.309Z,1016.42
2019-04-11T03:47:40.892Z,1016.40
2019-04-11T03:48:42.163Z,1016.46
2019-04-11T03:49:39.918Z,1016.46
2019-04-11T03:50:32.218Z,1016.50
2019-04-11T03:51:29.703Z,1016.44
2019-04-11T03:52:30.431Z,1016.44
2019-04-11T03:53:29.913Z,1016.46
2019-04-11T03:54:29.457Z,1016.46
2019-04-11T03:55:30.736Z,1016.40
2019-04-11T03:56:28.776Z,1016.42
2019-04-11T03:57:29.881Z,1016.40
2019-04-11T03:58:29.450Z,1016.47
2019-04-11T03:59:29.038Z,1016.43
2019-04-11T04:00:35.448Z,1016.39
2019-04-11T04:01:29.777Z,1016.46
2019-04-11T04:02:28.691Z,1016.46
2019-04-11T04:03:29.665Z,1016.55
2019-04-11T04:04:29.144Z,1016.53
2019-04-11T04:05:32.367Z,1016.50
2019-04-11T04:06:31.007Z,1016.54
2019-04-11T04:07:29.671Z,1016.51
2019-04-11T04:08:29.748Z,1016.54
2019-04-11T04:09:29.518Z,1016.54
2019-04-11T04:10:29.615Z,1016.57
2019-04-11T04:11:31.615Z,1016.56
2019-04-11T04:12:29.353Z,1016.62
2019-04-11T04:13:31.674Z,1016.59
2019-04-11T04:14:29.056Z,1016.62
2019-04-11T04:15:40.106Z,1016.67
2019-04-11T04:16:35.975Z,1016.60
2019-04-11T04:17:30.791Z,1016.67
2019-04-11T04:18:29.901Z,1016.68
2019-04-11T04:19:30.380Z,1016.68
2019-04-11T04:20:28.984Z,1016.70
2019-04-11T04:21:28.904Z,1016.69
2019-04-11T04:22:29.440Z,1016.78
2019-04-11T04:23:29.518Z,1016.72
2019-04-11T04:24:32.143Z,1016.71
2019-04-11T04:25:29.446Z,1016.79
2019-04-11T04:26:29.197Z,1016.76
2019-04-11T04:27:30.333Z,1016.79
2019-04-11T04:28:29.433Z,1016.79
2019-04-11T04:29:29.344Z,1016.88
2019-04-11T04:30:29.788Z,1016.83
2019-04-11T04:31:28.685Z,1016.81
2019-04-11T04:32:30.254Z,1016.82
2019-04-11T04:33:29.466Z,1016.85
2019-04-11T04:34:28.604Z,1016.90
2019-04-11T04:35:28.603Z,1016.92
2019-04-11T04:36:29.424Z,1016.90
2019-04-11T04:37:29.572Z,1016.95
2019-04-11T04:38:29.547Z,1016.95
2019-04-11T04:39:29.827Z,1016.95
2019-04-11T04:40:42.214Z,1016.96
2019-04-11T04:41:37.746Z,1017.02
2019-04-11T04:42:35.977Z,1016.92
2019-04-11T04:43:30.102Z,1016.97
2019-04-11T04:44:29.719Z,1017.00
2019-04-11T04:45:30.040Z,1017.02
2019-04-11T04:46:45.233Z,1016.98
2019-04-11T04:47:37.325Z,1017.02
2019-04-11T04:48:30.147Z,1017.05
2019-04-11T04:49:29.955Z,1017.07
2019-04-11T04:50:28.679Z,1017.04
2019-04-11T04:51:28.932Z,1017.11
2019-04-11T04:52:29.677Z,1017.09
2019-04-11T04:53:28.476Z,1017.20
2019-04-11T04:54:28.473Z,1017.18
2019-04-11T04:55:30.160Z,1017.22
2019-04-11T04:56:31.643Z,1017.25
2019-04-11T04:57:29.720Z,1017.28
2019-04-11T04:58:29.326Z,1017.24
2019-04-11T04:59:28.630Z,1017.24
2019-04-11T05:00:29.651Z,1017.28
2019-04-11T05:01:29.117Z,1017.33
2019-04-11T05:02:28.704Z,1017.28
2019-04-11T05:03:29.652Z,1017.34
2019-04-11T05:04:29.633Z,1017.26
2019-04-11T05:05:29.230Z,1017.31
2019-04-11T05:06:28.230Z,1017.34
2019-04-11T05:07:32.208Z,1017.33
2019-04-11T05:08:30.453Z,1017.32
2019-04-11T05:09:28.004Z,1017.38
2019-04-11T05:10:28.490Z,1017.28
2019-04-11T05:11:28.403Z,1017.36
2019-04-11T05:12:28.207Z,1017.37
2019-04-11T05:13:28.145Z,1017.38
2019-04-11T05:14:29.427Z,1017.39
2019-04-11T05:15:28.279Z,1017.34
2019-04-11T05:16:27.908Z,1017.41
2019-04-11T05:17:28.938Z,1017.38
2019-04-11T05:18:27.960Z,1017.35
2019-04-11T05:19:28.571Z,1017.36
2019-04-11T05:20:28.166Z,1017.41
2019-04-11T05:21:27.841Z,1017.43
2019-04-11T05:22:27.833Z,1017.47
2019-04-11T05:23:27.835Z,1017.48
2019-04-11T05:24:28.309Z,1017.48
2019-04-11T05:25:28.628Z,1017.52
2019-04-11T05:26:27.925Z,1017.49
2019-04-11T05:27:27.795Z,1017.54
2019-04-11T05:28:27.777Z,1017.52
2019-04-11T05:29:27.759Z,1017.56
2019-04-11T05:30:27.743Z,1017.51
2019-04-11T05:31:27.729Z,1017.55
2019-04-11T05:32:27.729Z,1017.57
2019-04-11T05:33:27.723Z,1017.54
2019-04-11T05:34:28.044Z,1017.61
2019-04-11T05:35:27.695Z,1017.64
2019-04-11T05:36:28.295Z,1017.63
2019-04-11T05:37:27.688Z,1017.68
2019-04-11T05:38:27.692Z,1017.61
2019-04-11T05:39:27.695Z,1017.66
2019-04-11T05:40:28.130Z,1017.68
2019-04-11T05:41:27.625Z,1017.64
2019-04-11T05:42:27.613Z,1017.68
2019-04-11T05:43:31.408Z,1017.72
2019-04-11T05:44:28.597Z,1017.72
2019-04-11T05:45:27.591Z,1017.73
2019-04-11T05:46:35.288Z,1017.73
2019-04-11T05:47:29.614Z,1017.69
2019-04-11T05:48:28.652Z,1017.70
2019-04-11T05:49:29.075Z,1017.76
2019-04-11T05:50:28.568Z,1017.73
2019-04-11T05:51:38.910Z,1017.72
2019-04-11T05:52:31.075Z,1017.71
2019-04-11T05:53:27.950Z,1017.71
2019-04-11T05:54:28.092Z,1017.70
2019-04-11T05:55:28.012Z,1017.77
2019-04-11T05:56:27.847Z,1017.65
2019-04-11T05:57:34.091Z,1017.63
2019-04-11T05:58:28.459Z,1017.75
2019-04-11T05:59:27.429Z,1017.72
2019-04-11T06:00:28.423Z,1017.70
2019-04-11T06:01:27.993Z,1017.78
2019-04-11T06:02:27.399Z,1017.81
2019-04-11T06:03:28.311Z,1017.73
2019-04-11T06:04:29.926Z,1017.75
2019-04-11T06:05:31.816Z,1017.80
2019-04-11T06:06:31.905Z,1017.73
2019-04-11T06:07:29.302Z,1017.78
2019-04-11T06:08:30.009Z,1017.81
2019-04-11T06:09:30.256Z,1017.91
2019-04-11T06:10:28.361Z,1017.85
2019-04-11T06:11:28.447Z,1017.87
2019-04-11T06:12:27.541Z,1017.93
2019-04-11T06:13:27.280Z,1017.80
2019-04-11T06:14:27.261Z,1017.86
2019-04-11T06:15:27.256Z,1017.86
2019-04-11T06:16:36.951Z,1017.91
2019-04-11T06:17:28.233Z,1017.85
2019-04-11T06:18:33.117Z,1017.89
2019-04-11T06:19:28.317Z,1017.87
2019-04-11T06:20:27.239Z,1017.93
2019-04-11T06:21:28.283Z,1017.85
2019-04-11T06:22:27.176Z,1017.92
2019-04-11T06:23:27.565Z,1017.91
2019-04-11T06:24:27.996Z,1017.87
2019-04-11T06:25:28.261Z,1017.88
2019-04-11T06:26:27.150Z,1017.86
2019-04-11T06:27:28.338Z,1017.91
2019-04-11T06:28:27.749Z,1017.93
2019-04-11T06:29:28.395Z,1017.89
2019-04-11T06:30:28.292Z,1017.92
2019-04-11T06:31:27.089Z,1017.93
2019-04-11T06:32:27.873Z,1017.96
2019-04-11T06:33:27.057Z,1017.93
2019-04-11T06:34:27.111Z,1017.96
2019-04-11T06:35:28.205Z,1017.95
2019-04-11T06:36:28.113Z,1017.92
2019-04-11T06:37:27.735Z,1017.98
2019-04-11T06:38:26.999Z,1017.93
2019-04-11T06:39:27.419Z,1018.00
2019-04-11T06:40:27.766Z,1017.95
2019-04-11T06:41:26.989Z,1017.96
2019-04-11T06:42:28.610Z,1017.93
2019-04-11T06:43:27.842Z,1018.02
2019-04-11T06:44:28.013Z,1017.96
2019-04-11T06:45:27.246Z,1017.91
2019-04-11T06:46:27.185Z,1017.98
2019-04-11T06:47:27.200Z,1018.01
2019-04-11T06:48:26.914Z,1018.08
2019-04-11T06:49:26.878Z,1018.01
2019-04-11T06:50:27.125Z,1017.96
2019-04-11T06:51:28.074Z,1018.02
2019-04-11T06:52:26.844Z,1018.02
2019-04-11T06:53:27.984Z,1018.00
2019-04-11T06:54:26.880Z,1018.03
2019-04-11T06:55:26.837Z,1018.07
2019-04-11T06:56:27.306Z,1018.05
2019-04-11T06:57:26.792Z,1018.00
2019-04-11T06:58:27.654Z,1018.06
2019-04-11T06:59:26.776Z,1018.03
2019-04-11T07:00:27.302Z,1018.06
2019-04-11T07:01:27.867Z,1018.11
2019-04-11T07:02:27.832Z,1018.08
2019-04-11T07:03:29.249Z,1018.10
2019-04-11T07:04:27.368Z,1018.03
2019-04-11T07:05:26.832Z,1018.05
2019-04-11T07:06:27.301Z,1018.07
2019-04-11T07:07:28.784Z,1017.97
2019-04-11T07:08:26.672Z,1018.04
2019-04-11T07:09:26.660Z,1018.02
2019-04-11T07:10:26.728Z,1018.00
2019-04-11T07:11:27.614Z,1018.05
2019-04-11T07:12:26.646Z,1018.06
2019-04-11T07:13:26.628Z,1018.01
2019-04-11T07:14:26.999Z,1018.14
2019-04-11T07:15:27.229Z,1018.11
2019-04-11T07:16:27.611Z,1018.11
2019-04-11T07:17:27.532Z,1018.08
2019-04-11T07:18:26.926Z,1018.12
2019-04-11T07:19:26.576Z,1018.11
2019-04-11T07:20:27.251Z,1018.15
2019-04-11T07:21:27.589Z,1018.13
2019-04-11T07:22:26.522Z,1018.13
2019-04-11T07:23:26.569Z,1018.17
2019-04-11T07:24:26.497Z,1018.15
2019-04-11T07:25:26.901Z,1018.12
2019-04-11T07:26:27.363Z,1018.16
2019-04-11T07:27:26.465Z,1018.16
2019-04-11T07:28:27.359Z,1018.19
2019-04-11T07:29:26.442Z,1018.14
2019-04-11T07:30:26.443Z,1018.18
2019-04-11T07:31:27.661Z,1018.11
2019-04-11T07:32:27.704Z,1018.16
2019-04-11T07:33:26.707Z,1018.10
2019-04-11T07:34:27.320Z,1018.14
2019-04-11T07:35:27.681Z,1018.09
2019-04-11T07:36:27.395Z,1018.05
2019-04-11T07:37:26.354Z,1018.20
2019-04-11T07:38:27.261Z,1018.13
2019-04-11T07:39:26.556Z,1018.13
2019-04-11T07:40:27.090Z,1018.14
2019-04-11T07:41:26.310Z,1018.25
2019-04-11T07:42:26.569Z,1018.15
2019-04-11T07:43:26.892Z,1018.22
2019-04-11T07:44:28.703Z,1018.00
2019-04-11T07:45:26.416Z,1018.17
2019-04-11T07:46:27.368Z,1018.23
2019-04-11T07:47:27.645Z,1018.11
2019-04-11T07:48:27.243Z,1018.20
2019-04-11T07:49:26.516Z,1018.17
2019-04-11T07:50:27.424Z,1018.18
2019-04-11T07:51:27.472Z,1018.25
2019-04-11T07:52:27.580Z,1018.17
2019-04-11T07:53:26.317Z,1018.12
2019-04-11T07:54:26.169Z,1018.16
2019-04-11T07:55:26.161Z,1018.18
2019-04-11T07:56:27.320Z,1018.11
2019-04-11T07:57:26.382Z,1018.14
2019-04-11T07:58:26.362Z,1018.02
2019-04-11T07:59:27.164Z,1018.19
2019-04-11T08:00:36.648Z,1018.16
2019-04-11T08:01:27.155Z,1018.22
2019-04-11T08:02:26.828Z,1018.22
2019-04-11T08:03:26.069Z,1018.22
2019-04-11T08:04:26.090Z,1018.17
2019-04-11T08:05:26.058Z,1018.06
2019-04-11T08:06:26.508Z,1018.05
2019-04-11T08:07:26.033Z,1018.27
2019-04-11T08:08:26.016Z,1018.26
2019-04-11T08:09:26.773Z,1018.21
2019-04-11T08:10:27.166Z,1018.20
2019-04-11T08:11:25.997Z,1018.15
2019-04-11T08:12:27.600Z,1018.21
2019-04-11T08:13:26.245Z,1018.19
2019-04-11T08:14:26.592Z,1018.26
2019-04-11T08:15:25.937Z,1018.17
2019-04-11T08:16:26.739Z,1018.20
2019-04-11T08:17:35.721Z,1018.21
2019-04-11T08:18:26.902Z,1018.24
2019-04-11T08:19:26.844Z,1018.13
2019-04-11T08:20:25.886Z,1018.14
2019-04-11T08:21:26.173Z,1018.14
2019-04-11T08:22:25.871Z,1017.91
2019-04-11T08:23:25.856Z,1017.96
2019-04-11T08:24:28.386Z,1018.18
2019-04-11T08:25:26.000Z,1018.18
2019-04-11T08:26:26.260Z,1018.24
2019-04-11T08:27:25.811Z,1018.14
2019-04-11T08:28:26.937Z,1018.21
2019-04-11T08:29:27.069Z,1018.15
2019-04-11T08:30:26.590Z,1018.02
2019-04-11T08:31:26.473Z,1018.16
2019-04-11T08:32:25.761Z,1018.08
2019-04-11T08:33:26.744Z,1018.24
2019-04-11T08:34:26.991Z,1018.14
2019-04-11T08:35:26.265Z,1018.22
2019-04-11T08:36:26.092Z,1018.23
2019-04-11T08:37:25.722Z,1017.97
2019-04-11T08:38:26.699Z,1018.00
2019-04-11T08:39:25.793Z,1017.98
2019-04-11T08:40:25.998Z,1018.19
2019-04-11T08:41:25.660Z,1018.04
2019-04-11T08:42:25.689Z,1018.10
2019-04-11T08:43:26.813Z,1018.03
2019-04-11T08:44:25.967Z,1018.02
2019-04-11T08:45:25.833Z,1018.05
2019-04-11T08:46:26.718Z,1018.00
2019-04-11T08:47:39.354Z,1018.03
2019-04-11T08:48:26.685Z,1018.02
2019-04-11T08:49:26.645Z,1018.08
2019-04-11T08:50:26.184Z,1018.07
2019-04-11T08:51:25.555Z,1018.05
2019-04-11T08:52:25.540Z,1018.06
2019-04-11T08:53:26.766Z,1018.00
2019-04-11T08:54:25.822Z,1018.03
2019-04-11T08:55:25.514Z,1018.06
2019-04-11T08:56:25.504Z,1018.04
2019-04-11T08:57:25.497Z,1018.08
2019-04-11T08:58:26.643Z,1018.08
2019-04-11T08:59:25.476Z,1018.02
2019-04-11T09:00:26.268Z,1018.05
2019-04-11T09:01:25.448Z,1018.19
2019-04-11T09:02:25.426Z,1018.24
2019-04-11T09:03:25.994Z,1018.25
2019-04-11T09:04:26.014Z,1018.20
2019-04-11T09:05:25.404Z,1018.15
2019-04-11T09:06:25.388Z,1018.14
2019-04-11T09:07:25.481Z,1018.20
2019-04-11T09:08:26.722Z,1018.17
2019-04-11T09:09:25.389Z,1018.21
2019-04-11T09:10:26.172Z,1018.17
2019-04-11T09:11:25.623Z,1018.16
2019-04-11T09:12:26.706Z,1018.17
2019-04-11T09:13:25.316Z,1018.22
2019-04-11T09:14:26.388Z,1018.14
2019-04-11T09:15:25.292Z,1018.16
2019-04-11T09:16:25.780Z,1018.04
2019-04-11T09:17:26.167Z,1017.95
2019-04-11T09:18:25.992Z,1017.98
2019-04-11T09:19:25.249Z,1017.95
2019-04-11T09:20:25.410Z,1018.04
2019-04-11T09:21:26.468Z,1018.01
2019-04-11T09:22:25.214Z,1017.95
2019-04-11T09:23:25.894Z,1017.99
2019-04-11T09:24:26.313Z,1017.99
2019-04-11T09:25:25.327Z,1018.03
2019-04-11T09:26:25.670Z,1017.96
2019-04-11T09:27:25.152Z,1018.00
2019-04-11T09:28:25.139Z,1017.96
2019-04-11T09:29:26.135Z,1017.97
2019-04-11T09:30:25.131Z,1017.91
2019-04-11T09:31:25.510Z,1017.94
2019-04-11T09:32:25.594Z,1017.96
2019-04-11T09:33:25.086Z,1017.93
2019-04-11T09:34:25.925Z,1017.96
2019-04-11T09:35:25.070Z,1017.97
2019-04-11T09:36:26.048Z,1017.98
2019-04-11T09:37:25.382Z,1017.98
2019-04-11T09:38:25.039Z,1017.96
2019-04-11T09:39:25.013Z,1018.04
2019-04-11T09:40:26.404Z,1017.95
2019-04-11T09:41:25.010Z,1018.07
2019-04-11T09:42:26.121Z,1018.13
2019-04-11T09:43:26.186Z,1017.97
2019-04-11T09:44:24.969Z,1017.99
2019-04-11T09:45:25.735Z,1017.97
2019-04-11T09:46:26.122Z,1018.05
2019-04-11T09:47:24.957Z,1017.96
2019-04-11T09:48:26.229Z,1017.98
2019-04-11T09:49:24.912Z,1018.03
2019-04-11T09:50:24.898Z,1018.08
2019-04-11T09:51:27.351Z,1017.92
2019-04-11T09:52:24.893Z,1017.90
2019-04-11T09:53:26.085Z,1017.99
2019-04-11T09:54:26.099Z,1017.88
2019-04-11T09:55:25.503Z,1017.95
2019-04-11T09:56:24.951Z,1018.00
2019-04-11T09:57:24.986Z,1017.96
2019-04-11T09:58:25.318Z,1017.96
2019-04-11T09:59:25.072Z,1018.08
2019-04-11T10:00:24.783Z,1018.05
2019-04-11T10:01:24.780Z,1018.09
2019-04-11T10:02:25.356Z,1018.08
2019-04-11T10:03:25.603Z,1017.96
2019-04-11T10:04:25.637Z,1017.93
2019-04-11T10:05:24.760Z,1018.01
2019-04-11T10:06:24.785Z,1017.88
2019-04-11T10:07:25.779Z,1017.95
2019-04-11T10:08:24.705Z,1017.97
2019-04-11T10:09:26.012Z,1017.98
2019-04-11T10:10:24.709Z,1017.95
2019-04-11T10:11:24.702Z,1018.06
2019-04-11T10:12:24.677Z,1018.02
2019-04-11T10:13:25.010Z,1018.04
2019-04-11T10:14:25.767Z,1017.98
2019-04-11T10:15:24.622Z,1017.96
2019-04-11T10:16:24.634Z,1018.04
2019-04-11T10:17:26.389Z,1018.05
2019-04-11T10:18:30.028Z,1017.98
2019-04-11T10:19:25.586Z,1018.03
2019-04-11T10:20:24.622Z,1018.03
2019-04-11T10:21:25.855Z,1018.04
2019-04-11T10:22:24.799Z,1018.04
2019-04-11T10:23:25.041Z,1018.06
2019-04-11T10:24:24.530Z,1018.06
2019-04-11T10:25:25.383Z,1018.10
2019-04-11T10:26:25.679Z,1018.05
2019-04-11T10:27:24.715Z,1018.03
2019-04-11T10:28:25.080Z,1017.98
2019-04-11T10:29:25.736Z,1018.11
2019-04-11T10:30:25.748Z,1018.02
2019-04-11T10:31:24.461Z,1018.04
2019-04-11T10:32:25.373Z,1018.04
2019-04-11T10:33:24.756Z,1018.00
2019-04-11T10:34:24.414Z,1018.04
2019-04-11T10:35:24.412Z,1018.03
2019-04-11T10:36:25.345Z,1017.97
2019-04-11T10:37:25.457Z,1017.97
2019-04-11T10:38:24.585Z,1018.00
2019-04-11T10:39:25.014Z,1018.08
2019-04-11T10:40:24.340Z,1018.03
2019-04-11T10:41:25.204Z,1018.04
2019-04-11T10:42:24.384Z,1018.01
2019-04-11T10:43:24.607Z,1017.97
2019-04-11T10:44:25.609Z,1017.98
2019-04-11T10:45:24.913Z,1018.05
2019-04-11T10:46:25.168Z,1018.08
2019-04-11T10:47:25.016Z,1017.97
2019-04-11T10:48:34.592Z,1017.99
2019-04-11T10:49:26.308Z,1018.03
2019-04-11T10:50:24.245Z,1018.00
2019-04-11T10:51:24.644Z,1017.99
2019-04-11T10:52:24.632Z,1018.10
2019-04-11T10:53:24.954Z,1018.03
2019-04-11T10:54:24.208Z,1018.02
2019-04-11T10:55:25.299Z,1018.08
2019-04-11T10:56:24.521Z,1018.00
2019-04-11T10:57:24.397Z,1018.07
2019-04-11T10:58:24.723Z,1018.01
2019-04-11T10:59:26.531Z,1018.06
2019-04-11T11:00:24.139Z,1018.10
2019-04-11T11:01:25.134Z,1018.01
2019-04-11T11:02:25.145Z,1018.08
2019-04-11T11:03:24.397Z,1018.06
2019-04-11T11:04:24.086Z,1018.05
2019-04-11T11:05:24.319Z,1018.11
2019-04-11T11:06:24.066Z,1018.07
2019-04-11T11:07:24.637Z,1018.12
2019-04-11T11:08:24.043Z,1018.02
2019-04-11T11:09:24.047Z,1018.05
2019-04-11T11:10:24.025Z,1018.10
2019-04-11T11:11:24.166Z,1018.04
2019-04-11T11:12:25.250Z,1018.06
2019-04-11T11:13:24.003Z,1018.07
2019-04-11T11:14:24.865Z,1018.06
2019-04-11T11:15:25.222Z,1018.01
2019-04-11T11:16:24.782Z,1018.05
2019-04-11T11:17:47.101Z,1018.06
2019-04-11T11:18:43.989Z,1018.09
2019-04-11T11:19:43.637Z,1018.06
2019-04-11T11:20:32.828Z,1018.03
2019-04-11T11:21:27.570Z,1018.15
2019-04-11T11:22:25.266Z,1018.12
2019-04-11T11:23:24.670Z,1018.13
2019-04-11T11:24:23.989Z,1018.09
2019-04-11T11:25:24.653Z,1018.06
2019-04-11T11:26:25.666Z,1018.10
2019-04-11T11:27:24.415Z,1018.15
2019-04-11T11:28:23.858Z,1018.18
2019-04-11T11:29:24.302Z,1018.13
2019-04-11T11:30:25.017Z,1018.17
2019-04-11T11:31:24.420Z,1018.17
2019-04-11T11:32:23.781Z,1018.21
2019-04-11T11:33:25.144Z,1018.22
2019-04-11T11:34:24.855Z,1018.18
2019-04-11T11:35:27.671Z,1018.23
2019-04-11T11:36:25.732Z,1018.20
2019-04-11T11:37:24.846Z,1018.20
2019-04-11T11:38:24.143Z,1018.21
2019-04-11T11:39:24.735Z,1018.15
2019-04-11T11:40:23.851Z,1018.18
2019-04-11T11:41:24.756Z,1018.19
2019-04-11T11:42:23.669Z,1018.22
2019-04-11T11:43:23.666Z,1018.23
2019-04-11T11:44:24.546Z,1018.22
2019-04-11T11:45:23.701Z,1018.21
2019-04-11T11:46:26.702Z,1018.17
2019-04-11T11:47:25.845Z,1018.23
2019-04-11T11:48:24.808Z,1018.17
2019-04-11T11:49:41.771Z,1018.25
2019-04-11T11:50:24.791Z,1018.17
2019-04-11T11:51:26.944Z,1018.18
2019-04-11T11:52:24.822Z,1018.26
2019-04-11T11:53:25.855Z,1018.22
2019-04-11T11:54:24.007Z,1018.24
2019-04-11T11:55:23.527Z,1018.23
2019-04-11T11:56:24.137Z,1018.26
2019-04-11T11:57:23.582Z,1018.24
2019-04-11T11:58:23.712Z,1018.22
2019-04-11T11:59:23.502Z,1018.28
2019-04-11T12:00:23.667Z,1018.23
2019-04-11T12:01:24.072Z,1018.36
2019-04-11T12:02:23.454Z,1018.26
2019-04-11T12:03:26.512Z,1018.27
2019-04-11T12:04:26.048Z,1018.27
2019-04-11T12:05:26.082Z,1018.31
2019-04-11T12:06:23.866Z,1018.32
2019-04-11T12:07:23.392Z,1018.26
2019-04-11T12:08:24.545Z,1018.30